sensor_id;sensor_type;location;lat;lon;timestamp;temperature;humidity
13205;DHT22;6667;52.634;9.226;2023-02-15T00:00:08;1.70;99.90
13205;DHT22;6667;52.634;9.226;2023-02-15T00:02:35;1.60;99.90
13205;DHT22;6667;52.634;9.226;2023-02-15T00:05:02;1.60;99.90
13205;DHT22;6667;52.634;9.226;2023-02-15T00:07:29;1.60;99.90
13205;DHT22;6667;52.634;9.226;2023-02-15T00:09:55;1.60;99.90
13205;DHT22;6667;52.634;9.226;2023-02-15T00:12:22;1.40;99.90
13205;DHT22;6667;52.634;9.226;2023-02-15T00:14:49;1.30;99.90
13205;DHT22;6667;52.634;9.226;2023-02-15T00:17:17;1.30;99.90
13205;DHT22;6667;52.634;9.226;2023-02-15T00:19:43;1.30;99.90
13205;DHT22;6667;52.634;9.226;2023-02-15T00:22:10;1.30;99.90
13205;DHT22;6667;52.634;9.226;2023-02-15T00:24:36;1.20;99.90
13205;DHT22;6667;52.634;9.226;2023-02-15T00:27:03;1.20;99.90
13205;DHT22;6667;52.634;9.226;2023-02-15T00:29:30;1.20;99.90
13205;DHT22;6667;52.634;9.226;2023-02-15T00:31:57;1.10;99.90
13205;DHT22;6667;52.634;9.226;2023-02-15T00:34:26;1.20;99.90
13205;DHT22;6667;52.634;9.226;2023-02-15T00:36:53;1.20;99.90
13205;DHT22;6667;52.634;9.226;2023-02-15T00:39:20;1.20;99.90
13205;DHT22;6667;52.634;9.226;2023-02-15T00:41:47;1.10;99.90
13205;DHT22;6667;52.634;9.226;2023-02-15T00:44:14;1.10;99.90
13205;DHT22;6667;52.634;9.226;2023-02-15T00:46:41;1.10;99.90
13205;DHT22;6667;52.634;9.226;2023-02-15T00:49:08;1.10;99.90
13205;DHT22;6667;52.634;9.226;2023-02-15T00:51:36;1.10;99.90
13205;DHT22;6667;52.634;9.226;2023-02-15T00:54:03;1.10;99.90
13205;DHT22;6667;52.634;9.226;2023-02-15T00:56:29;1.10;99.90
13205;DHT22;6667;52.634;9.226;2023-02-15T00:58:56;1.20;99.90
13205;DHT22;6667;52.634;9.226;2023-02-15T01:01:23;1.20;99.90
13205;DHT22;6667;52.634;9.226;2023-02-15T01:03:51;1.10;99.90
13205;DHT22;6667;52.634;9.226;2023-02-15T01:06:18;1.10;99.90
13205;DHT22;6667;52.634;9.226;2023-02-15T01:08:46;1.10;99.90
13205;DHT22;6667;52.634;9.226;2023-02-15T01:11:14;1.00;99.90
13205;DHT22;6667;52.634;9.226;2023-02-15T01:13:48;1.00;99.90
13205;DHT22;6667;52.634;9.226;2023-02-15T01:16:15;1.00;99.90
13205;DHT22;6667;52.634;9.226;2023-02-15T01:18:42;1.00;99.90
13205;DHT22;6667;52.634;9.226;2023-02-15T01:21:10;1.00;99.90
13205;DHT22;6667;52.634;9.226;2023-02-15T01:23:39;1.00;99.90
13205;DHT22;6667;52.634;9.226;2023-02-15T01:26:07;1.00;99.90
13205;DHT22;6667;52.634;9.226;2023-02-15T01:28:34;0.90;99.90
13205;DHT22;6667;52.634;9.226;2023-02-15T01:31:05;0.80;99.90
13205;DHT22;6667;52.634;9.226;2023-02-15T01:33:32;0.80;99.90
13205;DHT22;6667;52.634;9.226;2023-02-15T01:35:58;0.80;99.90
13205;DHT22;6667;52.634;9.226;2023-02-15T01:38:25;0.80;99.90
13205;DHT22;6667;52.634;9.226;2023-02-15T01:40:52;0.80;99.90
13205;DHT22;6667;52.634;9.226;2023-02-15T01:43:20;0.70;99.90
13205;DHT22;6667;52.634;9.226;2023-02-15T01:45:49;0.70;99.90
13205;DHT22;6667;52.634;9.226;2023-02-15T01:48:19;0.60;99.90
13205;DHT22;6667;52.634;9.226;2023-02-15T01:50:51;0.60;99.90
13205;DHT22;6667;52.634;9.226;2023-02-15T01:53:21;0.60;99.90
13205;DHT22;6667;52.634;9.226;2023-02-15T01:55:53;0.60;99.90
13205;DHT22;6667;52.634;9.226;2023-02-15T01:58:23;0.60;99.90
13205;DHT22;6667;52.634;9.226;2023-02-15T02:00:50;0.60;99.90
13205;DHT22;6667;52.634;9.226;2023-02-15T02:03:18;0.60;99.90
13205;DHT22;6667;52.634;9.226;2023-02-15T02:05:48;0.60;99.90
13205;DHT22;6667;52.634;9.226;2023-02-15T02:08:15;0.60;99.90
13205;DHT22;6667;52.634;9.226;2023-02-15T02:10:41;0.50;99.90
13205;DHT22;6667;52.634;9.226;2023-02-15T02:13:08;0.50;99.90
13205;DHT22;6667;52.634;9.226;2023-02-15T02:15:43;0.60;99.90
13205;DHT22;6667;52.634;9.226;2023-02-15T02:18:23;0.50;99.90
13205;DHT22;6667;52.634;9.226;2023-02-15T02:21:08;0.50;99.90
13205;DHT22;6667;52.634;9.226;2023-02-15T02:24:09;0.50;99.90
13205;DHT22;6667;52.634;9.226;2023-02-15T02:30:01;0.40;99.90
13205;DHT22;6667;52.634;9.226;2023-02-15T02:35:44;0.40;99.90
13205;DHT22;6667;52.634;9.226;2023-02-15T02:38:22;0.40;99.90
13205;DHT22;6667;52.634;9.226;2023-02-15T02:40:55;0.40;99.90
13205;DHT22;6667;52.634;9.226;2023-02-15T02:43:30;0.20;99.90
13205;DHT22;6667;52.634;9.226;2023-02-15T02:46:05;0.30;99.90
13205;DHT22;6667;52.634;9.226;2023-02-15T02:48:33;0.20;99.90
13205;DHT22;6667;52.634;9.226;2023-02-15T02:51:02;0.20;99.90
13205;DHT22;6667;52.634;9.226;2023-02-15T02:53:30;0.30;99.90
13205;DHT22;6667;52.634;9.226;2023-02-15T02:56:01;0.30;99.90
13205;DHT22;6667;52.634;9.226;2023-02-15T02:58:35;0.30;99.90
13205;DHT22;6667;52.634;9.226;2023-02-15T03:01:07;0.30;99.90
13205;DHT22;6667;52.634;9.226;2023-02-15T03:03:38;0.10;99.90
13205;DHT22;6667;52.634;9.226;2023-02-15T03:06:10;0.10;99.90
13205;DHT22;6667;52.634;9.226;2023-02-15T03:08:41;0.10;99.90
13205;DHT22;6667;52.634;9.226;2023-02-15T03:11:09;0.10;99.90
13205;DHT22;6667;52.634;9.226;2023-02-15T03:13:37;0.20;99.90
13205;DHT22;6667;52.634;9.226;2023-02-15T03:16:06;0.20;99.90
13205;DHT22;6667;52.634;9.226;2023-02-15T03:18:55;0.20;99.90
13205;DHT22;6667;52.634;9.226;2023-02-15T03:21:30;0.20;99.90
13205;DHT22;6667;52.634;9.226;2023-02-15T03:24:01;0.20;99.90
13205;DHT22;6667;52.634;9.226;2023-02-15T03:26:30;0.10;99.90
13205;DHT22;6667;52.634;9.226;2023-02-15T03:28:58;0.10;99.90
13205;DHT22;6667;52.634;9.226;2023-02-15T03:31:26;0.10;99.90
13205;DHT22;6667;52.634;9.226;2023-02-15T03:33:57;0.00;99.90
13205;DHT22;6667;52.634;9.226;2023-02-15T03:36:30;-0.10;99.90
13205;DHT22;6667;52.634;9.226;2023-02-15T03:39:07;-0.10;99.90
13205;DHT22;6667;52.634;9.226;2023-02-15T03:41:40;-0.10;99.90
13205;DHT22;6667;52.634;9.226;2023-02-15T03:44:13;-0.10;99.90
13205;DHT22;6667;52.634;9.226;2023-02-15T03:46:45;-0.10;99.90
13205;DHT22;6667;52.634;9.226;2023-02-15T03:49:17;-0.10;99.90
13205;DHT22;6667;52.634;9.226;2023-02-15T03:51:50;-0.20;99.90
13205;DHT22;6667;52.634;9.226;2023-02-15T03:54:20;-0.20;99.90
13205;DHT22;6667;52.634;9.226;2023-02-15T03:57:02;-0.20;99.90
13205;DHT22;6667;52.634;9.226;2023-02-15T03:59:46;-0.30;99.90
13205;DHT22;6667;52.634;9.226;2023-02-15T04:02:34;-0.30;99.90
13205;DHT22;6667;52.634;9.226;2023-02-15T04:05:04;-0.30;99.90
13205;DHT22;6667;52.634;9.226;2023-02-15T04:07:32;-0.20;99.90
13205;DHT22;6667;52.634;9.226;2023-02-15T04:09:58;-0.30;99.90
13205;DHT22;6667;52.634;9.226;2023-02-15T04:12:42;-0.20;99.90
13205;DHT22;6667;52.634;9.226;2023-02-15T04:15:12;-0.20;99.90
13205;DHT22;6667;52.634;9.226;2023-02-15T04:17:56;-0.20;99.90
13205;DHT22;6667;52.634;9.226;2023-02-15T04:20:22;-0.20;99.90
13205;DHT22;6667;52.634;9.226;2023-02-15T04:23:08;-0.20;99.90
13205;DHT22;6667;52.634;9.226;2023-02-15T04:25:52;-0.20;99.90
13205;DHT22;6667;52.634;9.226;2023-02-15T04:28:19;-0.30;99.90
13205;DHT22;6667;52.634;9.226;2023-02-15T04:30:46;-0.30;99.90
13205;DHT22;6667;52.634;9.226;2023-02-15T04:33:13;-0.30;99.90
13205;DHT22;6667;52.634;9.226;2023-02-15T04:35:39;-0.30;99.90
13205;DHT22;6667;52.634;9.226;2023-02-15T04:38:07;-0.30;99.90
13205;DHT22;6667;52.634;9.226;2023-02-15T04:40:35;-0.30;99.90
13205;DHT22;6667;52.634;9.226;2023-02-15T04:43:02;-0.30;99.90
13205;DHT22;6667;52.634;9.226;2023-02-15T04:45:28;-0.40;99.90
13205;DHT22;6667;52.634;9.226;2023-02-15T04:47:55;-0.40;99.90
13205;DHT22;6667;52.634;9.226;2023-02-15T04:50:22;-0.40;99.90
13205;DHT22;6667;52.634;9.226;2023-02-15T04:52:48;-0.50;99.90
13205;DHT22;6667;52.634;9.226;2023-02-15T04:55:16;-0.40;99.90
13205;DHT22;6667;52.634;9.226;2023-02-15T04:57:43;-0.50;99.90
13205;DHT22;6667;52.634;9.226;2023-02-15T05:00:10;-0.50;99.90
13205;DHT22;6667;52.634;9.226;2023-02-15T05:02:37;-0.60;99.90
13205;DHT22;6667;52.634;9.226;2023-02-15T05:05:04;-0.50;99.90
13205;DHT22;6667;52.634;9.226;2023-02-15T05:07:31;-0.60;99.90
13205;DHT22;6667;52.634;9.226;2023-02-15T05:09:57;-0.60;99.90
13205;DHT22;6667;52.634;9.226;2023-02-15T05:12:25;-0.60;99.90
13205;DHT22;6667;52.634;9.226;2023-02-15T05:14:52;-0.60;99.90
13205;DHT22;6667;52.634;9.226;2023-02-15T05:17:18;-0.70;99.90
13205;DHT22;6667;52.634;9.226;2023-02-15T05:19:45;-0.80;99.90
13205;DHT22;6667;52.634;9.226;2023-02-15T05:22:12;-0.90;99.90
13205;DHT22;6667;52.634;9.226;2023-02-15T05:24:38;-0.90;99.90
13205;DHT22;6667;52.634;9.226;2023-02-15T05:27:22;-0.80;99.90
13205;DHT22;6667;52.634;9.226;2023-02-15T05:30:09;-0.80;99.90
13205;DHT22;6667;52.634;9.226;2023-02-15T05:32:36;-0.80;99.90
13205;DHT22;6667;52.634;9.226;2023-02-15T05:35:04;-0.80;99.90
13205;DHT22;6667;52.634;9.226;2023-02-15T05:37:30;-0.80;99.90
13205;DHT22;6667;52.634;9.226;2023-02-15T05:39:57;-0.90;99.90
13205;DHT22;6667;52.634;9.226;2023-02-15T05:42:24;-1.00;99.90
13205;DHT22;6667;52.634;9.226;2023-02-15T05:44:51;-1.00;99.90
13205;DHT22;6667;52.634;9.226;2023-02-15T05:47:19;-1.00;99.90
13205;DHT22;6667;52.634;9.226;2023-02-15T05:49:45;-1.00;99.90
13205;DHT22;6667;52.634;9.226;2023-02-15T05:52:12;-1.00;99.90
13205;DHT22;6667;52.634;9.226;2023-02-15T05:54:39;-1.00;99.90
13205;DHT22;6667;52.634;9.226;2023-02-15T05:57:05;-1.00;99.90
13205;DHT22;6667;52.634;9.226;2023-02-15T05:59:32;-1.10;99.90
13205;DHT22;6667;52.634;9.226;2023-02-15T06:01:59;-1.00;99.90
13205;DHT22;6667;52.634;9.226;2023-02-15T06:04:27;-1.10;99.90
13205;DHT22;6667;52.634;9.226;2023-02-15T06:06:53;-1.10;99.90
13205;DHT22;6667;52.634;9.226;2023-02-15T06:09:20;-1.00;99.90
13205;DHT22;6667;52.634;9.226;2023-02-15T06:11:46;-1.00;99.90
13205;DHT22;6667;52.634;9.226;2023-02-15T06:14:13;-1.00;99.90
13205;DHT22;6667;52.634;9.226;2023-02-15T06:16:40;-1.10;99.90
13205;DHT22;6667;52.634;9.226;2023-02-15T06:19:06;-1.10;99.90
13205;DHT22;6667;52.634;9.226;2023-02-15T06:21:34;-1.10;99.90
13205;DHT22;6667;52.634;9.226;2023-02-15T06:24:01;-1.10;99.90
13205;DHT22;6667;52.634;9.226;2023-02-15T06:26:27;-1.10;99.90
13205;DHT22;6667;52.634;9.226;2023-02-15T06:28:54;-1.30;99.90
13205;DHT22;6667;52.634;9.226;2023-02-15T06:31:21;-1.30;99.90
13205;DHT22;6667;52.634;9.226;2023-02-15T06:33:47;-1.30;99.90
13205;DHT22;6667;52.634;9.226;2023-02-15T06:36:14;-1.20;99.90
13205;DHT22;6667;52.634;9.226;2023-02-15T06:38:42;-1.20;99.90
13205;DHT22;6667;52.634;9.226;2023-02-15T06:41:08;-1.10;99.90
13205;DHT22;6667;52.634;9.226;2023-02-15T06:43:35;-1.20;99.90
13205;DHT22;6667;52.634;9.226;2023-02-15T06:46:02;-1.20;99.90
13205;DHT22;6667;52.634;9.226;2023-02-15T06:48:28;-1.20;99.90
13205;DHT22;6667;52.634;9.226;2023-02-15T06:50:55;-1.10;99.90
13205;DHT22;6667;52.634;9.226;2023-02-15T06:53:21;-1.10;99.90
13205;DHT22;6667;52.634;9.226;2023-02-15T06:55:49;-1.10;99.90
13205;DHT22;6667;52.634;9.226;2023-02-15T06:58:16;-1.10;99.90
13205;DHT22;6667;52.634;9.226;2023-02-15T07:00:42;-1.10;99.90
13205;DHT22;6667;52.634;9.226;2023-02-15T07:03:09;-1.10;99.90
13205;DHT22;6667;52.634;9.226;2023-02-15T07:05:39;-1.10;99.90
13205;DHT22;6667;52.634;9.226;2023-02-15T07:08:06;-1.00;99.90
13205;DHT22;6667;52.634;9.226;2023-02-15T07:10:32;-1.00;99.90
13205;DHT22;6667;52.634;9.226;2023-02-15T07:13:00;-1.00;99.90
13205;DHT22;6667;52.634;9.226;2023-02-15T07:15:26;-1.00;99.90
13205;DHT22;6667;52.634;9.226;2023-02-15T07:17:52;-1.00;99.90
13205;DHT22;6667;52.634;9.226;2023-02-15T07:20:21;-0.90;99.90
13205;DHT22;6667;52.634;9.226;2023-02-15T07:22:48;-0.80;99.90
13205;DHT22;6667;52.634;9.226;2023-02-15T07:25:15;-0.80;99.90
13205;DHT22;6667;52.634;9.226;2023-02-15T07:27:42;-0.70;99.90
13205;DHT22;6667;52.634;9.226;2023-02-15T07:30:13;-0.70;99.90
13205;DHT22;6667;52.634;9.226;2023-02-15T07:32:40;-0.60;99.90
13205;DHT22;6667;52.634;9.226;2023-02-15T07:35:26;-0.60;99.90
13205;DHT22;6667;52.634;9.226;2023-02-15T07:37:54;-0.50;99.90
13205;DHT22;6667;52.634;9.226;2023-02-15T07:40:20;-0.40;99.90
13205;DHT22;6667;52.634;9.226;2023-02-15T07:42:49;-0.40;99.90
13205;DHT22;6667;52.634;9.226;2023-02-15T07:45:18;-0.40;99.90
13205;DHT22;6667;52.634;9.226;2023-02-15T07:47:45;-0.30;99.90
13205;DHT22;6667;52.634;9.226;2023-02-15T07:50:11;-0.30;99.90
13205;DHT22;6667;52.634;9.226;2023-02-15T07:52:38;-0.20;99.90
13205;DHT22;6667;52.634;9.226;2023-02-15T07:55:05;0.00;99.90
13205;DHT22;6667;52.634;9.226;2023-02-15T07:57:34;0.20;99.90
13205;DHT22;6667;52.634;9.226;2023-02-15T08:00:00;0.30;99.90
13205;DHT22;6667;52.634;9.226;2023-02-15T08:02:28;0.50;99.90
13205;DHT22;6667;52.634;9.226;2023-02-15T08:04:55;0.70;99.90
13205;DHT22;6667;52.634;9.226;2023-02-15T08:07:22;0.80;99.90
13205;DHT22;6667;52.634;9.226;2023-02-15T08:09:48;0.90;99.90
13205;DHT22;6667;52.634;9.226;2023-02-15T08:12:15;1.10;99.90
13205;DHT22;6667;52.634;9.226;2023-02-15T08:14:41;1.20;99.90
13205;DHT22;6667;52.634;9.226;2023-02-15T08:17:08;1.40;99.90
13205;DHT22;6667;52.634;9.226;2023-02-15T08:19:36;1.60;99.90
13205;DHT22;6667;52.634;9.226;2023-02-15T08:22:04;1.80;99.90
13205;DHT22;6667;52.634;9.226;2023-02-15T08:24:32;2.10;99.90
13205;DHT22;6667;52.634;9.226;2023-02-15T08:26:59;2.30;99.90
13205;DHT22;6667;52.634;9.226;2023-02-15T08:29:28;2.60;99.90
13205;DHT22;6667;52.634;9.226;2023-02-15T08:31:57;2.70;99.90
13205;DHT22;6667;52.634;9.226;2023-02-15T08:34:27;2.90;99.90
13205;DHT22;6667;52.634;9.226;2023-02-15T08:36:56;3.10;99.90
13205;DHT22;6667;52.634;9.226;2023-02-15T08:39:22;3.20;99.90
13205;DHT22;6667;52.634;9.226;2023-02-15T08:41:49;3.30;99.90
13205;DHT22;6667;52.634;9.226;2023-02-15T08:44:17;3.70;99.90
13205;DHT22;6667;52.634;9.226;2023-02-15T08:46:45;3.90;99.90
13205;DHT22;6667;52.634;9.226;2023-02-15T08:49:15;4.10;99.90
13205;DHT22;6667;52.634;9.226;2023-02-15T08:51:43;4.40;99.90
13205;DHT22;6667;52.634;9.226;2023-02-15T08:54:13;4.70;99.90
13205;DHT22;6667;52.634;9.226;2023-02-15T08:56:41;5.00;99.90
13205;DHT22;6667;52.634;9.226;2023-02-15T08:59:12;5.40;99.90
13205;DHT22;6667;52.634;9.226;2023-02-15T09:01:39;5.30;99.90
13205;DHT22;6667;52.634;9.226;2023-02-15T09:04:07;5.50;99.90
13205;DHT22;6667;52.634;9.226;2023-02-15T09:06:35;5.40;99.90
13205;DHT22;6667;52.634;9.226;2023-02-15T09:09:02;5.40;99.90
13205;DHT22;6667;52.634;9.226;2023-02-15T09:11:34;5.60;99.90
13205;DHT22;6667;52.634;9.226;2023-02-15T09:14:02;5.90;99.90
13205;DHT22;6667;52.634;9.226;2023-02-15T09:16:31;6.00;99.90
13205;DHT22;6667;52.634;9.226;2023-02-15T09:18:58;6.50;99.90
13205;DHT22;6667;52.634;9.226;2023-02-15T09:21:26;6.60;99.90
13205;DHT22;6667;52.634;9.226;2023-02-15T09:23:56;6.90;99.90
13205;DHT22;6667;52.634;9.226;2023-02-15T09:26:24;6.90;99.90
13205;DHT22;6667;52.634;9.226;2023-02-15T09:28:53;7.00;99.90
13205;DHT22;6667;52.634;9.226;2023-02-15T09:31:24;7.40;99.90
13205;DHT22;6667;52.634;9.226;2023-02-15T09:33:51;7.50;99.90
13205;DHT22;6667;52.634;9.226;2023-02-15T09:36:20;7.50;99.90
13205;DHT22;6667;52.634;9.226;2023-02-15T09:38:52;7.70;99.90
13205;DHT22;6667;52.634;9.226;2023-02-15T09:41:34;8.00;99.90
13205;DHT22;6667;52.634;9.226;2023-02-15T09:44:15;8.60;99.90
13205;DHT22;6667;52.634;9.226;2023-02-15T09:46:56;9.20;99.90
13205;DHT22;6667;52.634;9.226;2023-02-15T09:49:32;9.30;99.90
13205;DHT22;6667;52.634;9.226;2023-02-15T09:52:27;9.40;99.90
13205;DHT22;6667;52.634;9.226;2023-02-15T09:55:07;9.50;99.90
13205;DHT22;6667;52.634;9.226;2023-02-15T09:57:42;9.40;99.90
13205;DHT22;6667;52.634;9.226;2023-02-15T10:00:18;9.00;99.90
13205;DHT22;6667;52.634;9.226;2023-02-15T10:03:01;9.60;99.90
13205;DHT22;6667;52.634;9.226;2023-02-15T10:05:38;9.60;99.90
13205;DHT22;6667;52.634;9.226;2023-02-15T10:11:10;10.10;99.90
13205;DHT22;6667;52.634;9.226;2023-02-15T10:14:03;10.50;99.90
13205;DHT22;6667;52.634;9.226;2023-02-15T10:16:39;10.80;99.90
13205;DHT22;6667;52.634;9.226;2023-02-15T10:19:14;10.60;99.90
13205;DHT22;6667;52.634;9.226;2023-02-15T10:21:52;11.00;99.90
13205;DHT22;6667;52.634;9.226;2023-02-15T10:24:32;11.40;99.90
13205;DHT22;6667;52.634;9.226;2023-02-15T10:27:05;11.10;99.90
13205;DHT22;6667;52.634;9.226;2023-02-15T10:29:36;10.80;99.90
13205;DHT22;6667;52.634;9.226;2023-02-15T10:32:15;11.00;99.90
13205;DHT22;6667;52.634;9.226;2023-02-15T10:34:49;11.50;99.90
13205;DHT22;6667;52.634;9.226;2023-02-15T10:40:08;11.50;99.90
13205;DHT22;6667;52.634;9.226;2023-02-15T10:42:49;11.80;99.90
13205;DHT22;6667;52.634;9.226;2023-02-15T10:45:26;11.90;99.90
13205;DHT22;6667;52.634;9.226;2023-02-15T10:48:28;12.00;99.90
13205;DHT22;6667;52.634;9.226;2023-02-15T10:51:02;12.10;99.90
13205;DHT22;6667;52.634;9.226;2023-02-15T10:53:46;12.40;99.90
13205;DHT22;6667;52.634;9.226;2023-02-15T10:56:22;12.40;99.90
13205;DHT22;6667;52.634;9.226;2023-02-15T10:59:10;12.50;99.90
13205;DHT22;6667;52.634;9.226;2023-02-15T11:01:46;12.70;99.90
13205;DHT22;6667;52.634;9.226;2023-02-15T11:04:40;12.50;99.90
13205;DHT22;6667;52.634;9.226;2023-02-15T11:07:16;12.60;99.90
13205;DHT22;6667;52.634;9.226;2023-02-15T11:09:46;13.00;99.90
13205;DHT22;6667;52.634;9.226;2023-02-15T11:12:16;12.90;99.90
13205;DHT22;6667;52.634;9.226;2023-02-15T11:14:51;13.10;99.90
13205;DHT22;6667;52.634;9.226;2023-02-15T11:17:22;13.00;99.90
13205;DHT22;6667;52.634;9.226;2023-02-15T11:19:57;13.00;99.90
13205;DHT22;6667;52.634;9.226;2023-02-15T11:22:26;12.80;99.90
13205;DHT22;6667;52.634;9.226;2023-02-15T11:24:54;12.60;99.90
13205;DHT22;6667;52.634;9.226;2023-02-15T11:27:25;12.60;99.90
13205;DHT22;6667;52.634;9.226;2023-02-15T11:29:57;12.90;99.90
13205;DHT22;6667;52.634;9.226;2023-02-15T11:32:28;12.60;99.90
13205;DHT22;6667;52.634;9.226;2023-02-15T11:35:01;12.80;99.90
13205;DHT22;6667;52.634;9.226;2023-02-15T11:37:33;12.90;99.90
13205;DHT22;6667;52.634;9.226;2023-02-15T11:40:02;13.20;99.90
13205;DHT22;6667;52.634;9.226;2023-02-15T11:42:31;13.20;99.90
13205;DHT22;6667;52.634;9.226;2023-02-15T11:45:02;13.10;99.90
13205;DHT22;6667;52.634;9.226;2023-02-15T11:47:30;13.30;99.90
13205;DHT22;6667;52.634;9.226;2023-02-15T11:49:59;13.50;99.90
13205;DHT22;6667;52.634;9.226;2023-02-15T11:52:26;13.50;99.90
13205;DHT22;6667;52.634;9.226;2023-02-15T11:54:53;13.40;99.90
13205;DHT22;6667;52.634;9.226;2023-02-15T11:57:23;13.30;99.90
13205;DHT22;6667;52.634;9.226;2023-02-15T11:59:56;13.30;99.90
13205;DHT22;6667;52.634;9.226;2023-02-15T12:02:24;13.60;99.90
13205;DHT22;6667;52.634;9.226;2023-02-15T12:04:55;13.60;99.90
13205;DHT22;6667;52.634;9.226;2023-02-15T12:07:27;13.70;99.90
13205;DHT22;6667;52.634;9.226;2023-02-15T12:09:59;13.80;99.90
13205;DHT22;6667;52.634;9.226;2023-02-15T12:12:28;13.80;99.90
13205;DHT22;6667;52.634;9.226;2023-02-15T12:14:56;13.70;99.90
13205;DHT22;6667;52.634;9.226;2023-02-15T12:17:24;13.90;99.90
13205;DHT22;6667;52.634;9.226;2023-02-15T12:19:54;13.80;99.90
13205;DHT22;6667;52.634;9.226;2023-02-15T12:22:26;13.60;99.90
13205;DHT22;6667;52.634;9.226;2023-02-15T12:24:55;13.60;99.90
13205;DHT22;6667;52.634;9.226;2023-02-15T12:27:25;13.70;99.90
13205;DHT22;6667;52.634;9.226;2023-02-15T12:29:56;13.80;99.90
13205;DHT22;6667;52.634;9.226;2023-02-15T12:32:27;13.90;99.90
13205;DHT22;6667;52.634;9.226;2023-02-15T12:34:59;13.80;99.90
13205;DHT22;6667;52.634;9.226;2023-02-15T12:37:30;13.60;99.90
13205;DHT22;6667;52.634;9.226;2023-02-15T12:40:00;13.60;99.90
13205;DHT22;6667;52.634;9.226;2023-02-15T12:42:40;13.80;99.90
13205;DHT22;6667;52.634;9.226;2023-02-15T12:45:22;13.70;99.90
13205;DHT22;6667;52.634;9.226;2023-02-15T12:48:08;13.80;99.90
13205;DHT22;6667;52.634;9.226;2023-02-15T12:50:36;13.80;99.90
13205;DHT22;6667;52.634;9.226;2023-02-15T12:53:12;13.80;99.90
13205;DHT22;6667;52.634;9.226;2023-02-15T12:55:50;14.10;99.90
13205;DHT22;6667;52.634;9.226;2023-02-15T12:58:18;14.00;99.90
13205;DHT22;6667;52.634;9.226;2023-02-15T13:00:46;13.90;99.90
13205;DHT22;6667;52.634;9.226;2023-02-15T13:03:17;14.10;99.90
13205;DHT22;6667;52.634;9.226;2023-02-15T13:05:45;14.20;99.90
13205;DHT22;6667;52.634;9.226;2023-02-15T13:08:16;14.00;99.90
13205;DHT22;6667;52.634;9.226;2023-02-15T13:10:53;14.00;99.90
13205;DHT22;6667;52.634;9.226;2023-02-15T13:13:22;13.90;99.90
13205;DHT22;6667;52.634;9.226;2023-02-15T13:15:52;14.00;99.90
13205;DHT22;6667;52.634;9.226;2023-02-15T13:18:29;13.90;99.90
13205;DHT22;6667;52.634;9.226;2023-02-15T13:21:09;13.90;99.90
13205;DHT22;6667;52.634;9.226;2023-02-15T13:23:39;13.70;99.90
13205;DHT22;6667;52.634;9.226;2023-02-15T13:26:12;14.00;99.90
13205;DHT22;6667;52.634;9.226;2023-02-15T13:28:44;14.20;99.90
13205;DHT22;6667;52.634;9.226;2023-02-15T13:31:13;14.20;99.90
13205;DHT22;6667;52.634;9.226;2023-02-15T13:33:43;14.60;99.90
13205;DHT22;6667;52.634;9.226;2023-02-15T13:36:15;14.70;99.90
13205;DHT22;6667;52.634;9.226;2023-02-15T13:38:54;14.60;99.90
13205;DHT22;6667;52.634;9.226;2023-02-15T13:41:27;14.30;99.90
13205;DHT22;6667;52.634;9.226;2023-02-15T13:44:03;14.30;99.90
13205;DHT22;6667;52.634;9.226;2023-02-15T13:46:48;14.30;99.90
13205;DHT22;6667;52.634;9.226;2023-02-15T13:49:28;14.30;99.90
13205;DHT22;6667;52.634;9.226;2023-02-15T13:52:05;14.50;99.90
13205;DHT22;6667;52.634;9.226;2023-02-15T13:54:47;14.20;99.90
13205;DHT22;6667;52.634;9.226;2023-02-15T13:57:25;14.10;99.90
13205;DHT22;6667;52.634;9.226;2023-02-15T14:00:03;14.00;99.90
13205;DHT22;6667;52.634;9.226;2023-02-15T14:02:43;13.90;99.90
13205;DHT22;6667;52.634;9.226;2023-02-15T14:05:21;13.90;99.90
13205;DHT22;6667;52.634;9.226;2023-02-15T14:07:56;14.10;99.90
13205;DHT22;6667;52.634;9.226;2023-02-15T14:10:34;13.80;99.90
13205;DHT22;6667;52.634;9.226;2023-02-15T14:13:36;13.50;99.90
13205;DHT22;6667;52.634;9.226;2023-02-15T14:16:12;13.30;99.90
13205;DHT22;6667;52.634;9.226;2023-02-15T14:18:44;13.10;99.90
13205;DHT22;6667;52.634;9.226;2023-02-15T14:21:16;12.90;99.90
13205;DHT22;6667;52.634;9.226;2023-02-15T14:23:56;13.00;99.90
13205;DHT22;6667;52.634;9.226;2023-02-15T14:26:33;12.90;99.90
13205;DHT22;6667;52.634;9.226;2023-02-15T14:29:08;12.90;99.90
13205;DHT22;6667;52.634;9.226;2023-02-15T14:31:40;12.80;99.90
13205;DHT22;6667;52.634;9.226;2023-02-15T14:34:18;12.80;99.90
13205;DHT22;6667;52.634;9.226;2023-02-15T14:36:46;12.90;99.90
13205;DHT22;6667;52.634;9.226;2023-02-15T14:39:25;12.80;99.90
13205;DHT22;6667;52.634;9.226;2023-02-15T14:42:18;13.00;99.90
13205;DHT22;6667;52.634;9.226;2023-02-15T14:44:49;12.90;99.90
13205;DHT22;6667;52.634;9.226;2023-02-15T14:47:22;12.70;99.90
13205;DHT22;6667;52.634;9.226;2023-02-15T14:49:52;12.60;99.90
13205;DHT22;6667;52.634;9.226;2023-02-15T14:52:19;12.50;99.90
13205;DHT22;6667;52.634;9.226;2023-02-15T14:54:57;12.50;99.90
13205;DHT22;6667;52.634;9.226;2023-02-15T14:57:26;12.30;99.90
13205;DHT22;6667;52.634;9.226;2023-02-15T14:59:55;12.20;99.90
13205;DHT22;6667;52.634;9.226;2023-02-15T15:02:25;12.00;99.90
13205;DHT22;6667;52.634;9.226;2023-02-15T15:04:58;11.80;99.90
13205;DHT22;6667;52.634;9.226;2023-02-15T15:07:28;11.80;99.90
13205;DHT22;6667;52.634;9.226;2023-02-15T15:10:04;11.60;99.90
13205;DHT22;6667;52.634;9.226;2023-02-15T15:12:43;11.60;99.90
13205;DHT22;6667;52.634;9.226;2023-02-15T15:15:14;11.50;99.90
13205;DHT22;6667;52.634;9.226;2023-02-15T15:17:59;11.40;99.90
13205;DHT22;6667;52.634;9.226;2023-02-15T15:20:44;11.40;99.90
13205;DHT22;6667;52.634;9.226;2023-02-15T15:23:36;11.40;99.90
13205;DHT22;6667;52.634;9.226;2023-02-15T15:26:23;11.40;99.90
13205;DHT22;6667;52.634;9.226;2023-02-15T15:28:56;11.40;99.90
13205;DHT22;6667;52.634;9.226;2023-02-15T15:31:47;11.30;99.90
13205;DHT22;6667;52.634;9.226;2023-02-15T15:34:25;11.40;99.90
13205;DHT22;6667;52.634;9.226;2023-02-15T15:43:46;11.10;99.90
13205;DHT22;6667;52.634;9.226;2023-02-15T15:49:20;11.00;99.90
13205;DHT22;6667;52.634;9.226;2023-02-15T15:51:59;10.90;99.90
13205;DHT22;6667;52.634;9.226;2023-02-15T15:54:28;10.80;99.90
13205;DHT22;6667;52.634;9.226;2023-02-15T15:56:59;10.80;99.90
13205;DHT22;6667;52.634;9.226;2023-02-15T15:59:29;10.70;99.90
13205;DHT22;6667;52.634;9.226;2023-02-15T16:02:03;10.60;99.90
13205;DHT22;6667;52.634;9.226;2023-02-15T16:04:32;10.50;99.90
13205;DHT22;6667;52.634;9.226;2023-02-15T16:09:56;10.40;99.90
13205;DHT22;6667;52.634;9.226;2023-02-15T16:12:23;10.40;99.90
13205;DHT22;6667;52.634;9.226;2023-02-15T16:14:51;10.30;99.90
13205;DHT22;6667;52.634;9.226;2023-02-15T16:17:23;10.30;99.90
13205;DHT22;6667;52.634;9.226;2023-02-15T16:19:51;10.20;99.90
13205;DHT22;6667;52.634;9.226;2023-02-15T16:22:21;10.00;99.90
13205;DHT22;6667;52.634;9.226;2023-02-15T16:27:42;9.80;99.90
13205;DHT22;6667;52.634;9.226;2023-02-15T16:30:27;9.70;99.90
13205;DHT22;6667;52.634;9.226;2023-02-15T16:33:04;9.60;99.90
13205;DHT22;6667;52.634;9.226;2023-02-15T16:35:32;9.50;99.90
13205;DHT22;6667;52.634;9.226;2023-02-15T16:37:58;9.30;99.90
13205;DHT22;6667;52.634;9.226;2023-02-15T16:40:34;9.20;99.90
13205;DHT22;6667;52.634;9.226;2023-02-15T16:43:04;8.90;99.90
13205;DHT22;6667;52.634;9.226;2023-02-15T16:45:33;8.90;99.90